CYVK1: Verdigris River, Coyville, KS

Data processed at Tue May 21 2019 23:50


All information presented herein is the property of the government of the United States of America and may be revised or deleted at any time without prior notice.
Dissemination of this information without the expressed written consent of the Public Affairs Office, Tulsa District U.S. Army Corps of Engineers is strictly prohibited.
These data are gathered electronically and, as presented, have not undergone any form of quality control. These data are not guaranteed to be valid or correct.
Go to home page.
Go to station list.
Go to home page.

Upstream stations:

Downstream station:
Previous Day
Next Day
Current Day
    
SHEF ID:       CYVK1     VERDIGRIS R NR COYVILLE, KS
STATION TYPE:  
Regulating: Stage =    26.00, Flow =     7720

               PRECIP     STAGE  RIV-FLOW   VOLTAGE  BAT-LOAD
                   in        ft       cfs      volt      volt
              Ccp-Rev   Ccp-Rev   Ccp-Rev   Ccp-Rev   Ccp-Rev
(US/Central)
05/21 00:00      0.20     25.62      7540     12.57     12.49
05/21 01:00      0.12     24.94      7220     12.57     12.49
05/21 02:00      0.32     24.47      7010     12.57     12.49
05/21 03:00      0.23     24.12      6850     12.49     12.49
05/21 04:00      0.02     23.96      6770     12.49     12.49
05/21 05:00      0.27     23.89      6740     12.57     12.49
05/21 06:00      0.12     23.84      6720     12.57     12.49
05/21 07:00      0.86     23.94      6760     12.57     12.49
05/21 08:00      0.24     24.71      7120     12.57     12.49
05/21 09:00      0.10     25.84      7650     12.65     12.57
05/21 10:00      0.12     26.82      8120     12.65     12.57
05/21 11:00      0.06     27.11      8260     12.97     12.65
05/21 12:00      0.01     26.55      7990     12.89     12.81
05/21 13:00      0.00     25.63      7550     13.13     12.89
05/21 14:00      0.00     24.62      7080     13.21     13.21
05/21 15:00      0.02     24.76      7140     13.92     13.60
05/21 16:00      0.00     26.67      8050     13.92     13.44
05/21 17:00      0.00     27.80      8600     13.68     13.44
05/21 18:00      0.00     28.64      9020     13.37     13.37
05/21 19:00      0.00     29.17      9290     13.21     13.21
05/21 20:00      0.00     29.61      9510     12.97     12.97
05/21 21:00      0.00     29.95      9690     12.89     12.81
05/21 22:00      0.00     30.21      9820     12.81     12.81
05/21 23:00      0.00     30.88     10200     12.81     12.73